Time;durP1;ratioP1;P1;durP2;ratioP2;P2;SDS_P1;SDS_P2;PMS_P1;PMS_P2;Temp;Humidity;BMP_temperature;BMP_pressure;BME280_temperature;BME280_humidity;BME280_pressure;Samples;Min_cycle;Max_cycle;Signal;HPM_P1;HPM_P2
2021/05/03 00:02:01;;;;;;;3.23;2.50;;;6.00;58.90;;;;;;5052269;28;20170;-74
2021/05/03 00:04:26;;;;;;;9.93;3.00;;;5.90;58.90;;;;;;5049983;28;20212;-74
2021/05/03 00:06:52;;;;;;;4.17;2.50;;;5.90;59.10;;;;;;5049472;28;20177;-74
2021/05/03 00:09:18;;;;;;;4.40;2.70;;;5.90;59.20;;;;;;5066414;28;20261;-73
2021/05/03 00:11:43;;;;;;;4.67;3.10;;;5.90;59.10;;;;;;5051054;28;20173;-74
2021/05/03 00:14:09;;;;;;;4.30;2.27;;;5.90;59.10;;;;;;5050600;28;20205;-74
2021/05/03 00:16:35;;;;;;;5.83;2.47;;;5.90;59.10;;;;;;5050646;28;20189;-75
2021/05/03 00:19:00;;;;;;;2.73;2.03;;;5.90;59.30;;;;;;5051978;28;20170;-74
2021/05/03 00:21:26;;;;;;;4.83;2.83;;;5.80;59.40;;;;;;5050218;28;20243;-74
2021/05/03 00:23:52;;;;;;;4.57;2.70;;;5.80;59.50;;;;;;5051695;28;20232;-75
2021/05/03 00:26:18;;;;;;;3.87;2.27;;;5.80;59.50;;;;;;5050289;28;20244;-74
2021/05/03 00:28:44;;;;;;;9.60;2.97;;;5.80;59.60;;;;;;5050587;28;20166;-74
2021/05/03 00:31:10;;;;;;;6.67;3.00;;;5.80;59.90;;;;;;5050767;28;20415;-74
2021/05/03 00:33:36;;;;;;;4.03;3.10;;;5.80;59.90;;;;;;5049614;28;20589;-73
2021/05/03 00:36:02;;;;;;;8.97;3.20;;;5.70;59.70;;;;;;5050483;28;20424;-74
2021/05/03 00:38:28;;;;;;;5.00;2.10;;;5.70;59.90;;;;;;5066171;28;20409;-74
2021/05/03 00:40:53;;;;;;;4.10;2.90;;;5.70;60.30;;;;;;5050449;28;20553;-74
2021/05/03 00:43:20;;;;;;;5.40;2.87;;;5.60;60.40;;;;;;5049115;28;20200;-75
2021/05/03 00:45:50;;;;;;;5.00;3.43;;;5.60;60.80;;;;;;5048831;28;20285;-75
2021/05/03 00:48:16;;;;;;;9.43;2.80;;;5.50;60.90;;;;;;5066949;28;20454;-75
2021/05/03 00:50:43;;;;;;;6.70;3.10;;;5.50;61.20;;;;;;5051766;28;21058;-73
2021/05/03 00:53:09;;;;;;;3.80;3.23;;;5.50;61.60;;;;;;5051115;28;20809;-75
2021/05/03 00:55:35;;;;;;;8.37;3.50;;;5.50;61.70;;;;;;5049528;28;20424;-75
2021/05/03 00:58:05;;;;;;;7.30;4.30;;;5.40;61.90;;;;;;5050099;28;20914;-74
2021/05/03 01:00:32;;;;;;;6.80;4.67;;;5.40;62.10;;;;;;5065667;28;20501;-74
2021/05/03 01:02:58;;;;;;;7.27;3.53;;;5.30;62.30;;;;;;5049283;28;20501;-74
2021/05/03 01:05:28;;;;;;;8.63;3.93;;;5.30;62.50;;;;;;5050106;28;20468;-74
2021/05/03 01:07:54;;;;;;;4.10;2.93;;;5.30;62.70;;;;;;5050745;28;20404;-74
2021/05/03 01:10:20;;;;;;;7.93;3.77;;;5.30;62.80;;;;;;5050498;28;20416;-73
2021/05/03 01:12:46;;;;;;;5.20;3.10;;;5.30;62.80;;;;;;5055702;28;20427;-74
2021/05/03 01:15:12;;;;;;;6.50;3.03;;;5.30;63.00;;;;;;5055234;28;20189;-73
2021/05/03 01:17:41;;;;;;;5.83;2.87;;;5.20;62.90;;;;;;5055517;28;20400;-73
2021/05/03 01:20:07;;;;;;;4.40;2.60;;;5.20;63.20;;;;;;5055050;28;20408;-74
2021/05/03 01:22:34;;;;;;;5.87;2.80;;;5.20;63.30;;;;;;5057023;28;20485;-73
2021/05/03 01:24:59;;;;;;;7.30;3.40;;;5.20;63.40;;;;;;5069335;28;20190;-73
2021/05/03 01:27:25;;;;;;;8.70;3.10;;;5.20;63.70;;;;;;5053950;28;20550;-74
2021/05/03 01:29:51;;;;;;;7.67;3.63;;;5.10;63.80;;;;;;5054844;28;20193;-74
2021/05/03 01:32:16;;;;;;;5.03;2.47;;;5.10;63.70;;;;;;5054962;28;20204;-73
2021/05/03 01:34:43;;;;;;;6.20;2.90;;;5.10;64.20;;;;;;5055567;28;20185;-73
2021/05/03 01:37:15;;;;;;;4.30;3.23;;;5.10;64.40;;;;;;5056096;28;20162;-74
2021/05/03 01:39:41;;;;;;;5.20;2.63;;;5.10;64.50;;;;;;5055196;28;20419;-73
2021/05/03 01:42:07;;;;;;;8.47;3.43;;;5.00;64.70;;;;;;5071858;28;20420;-74
2021/05/03 01:44:36;;;;;;;5.20;3.30;;;5.00;64.80;;;;;;5059596;28;20992;-74
2021/05/03 01:47:01;;;;;;;4.77;3.07;;;5.00;64.80;;;;;;5056207;28;20416;-74
2021/05/03 01:49:28;;;;;;;9.10;2.77;;;5.00;64.90;;;;;;5054711;28;20511;-75
2021/05/03 01:51:55;;;;;;;6.17;3.27;;;5.10;64.90;;;;;;5058442;28;20416;-74
2021/05/03 01:54:21;;;;;;;9.80;3.60;;;5.10;64.70;;;;;;5056244;28;20416;-73
2021/05/03 01:56:46;;;;;;;4.80;2.90;;;5.10;64.50;;;;;;5073189;28;20925;-73
2021/05/03 01:59:12;;;;;;;4.97;3.30;;;5.20;64.40;;;;;;5052859;28;20404;-74
2021/05/03 02:01:39;;;;;;;6.63;3.60;;;5.20;64.30;;;;;;5054263;28;20169;-73
2021/05/03 02:04:08;;;;;;;7.43;3.50;;;5.20;64.40;;;;;;5053461;28;20220;-73
2021/05/03 02:06:36;;;;;;;5.07;3.50;;;5.20;64.30;;;;;;5052406;28;20447;-73
2021/05/03 02:09:12;;;;;;;6.83;3.57;;;5.20;64.40;;;;;;5053503;28;20396;-73
2021/05/03 02:11:41;;;;;;;6.10;3.47;;;5.20;64.30;;;;;;5068205;28;20472;-74
2021/05/03 02:14:09;;;;;;;8.77;3.80;;;5.20;64.10;;;;;;5053989;28;20550;-73
2021/05/03 02:16:34;;;;;;;7.50;3.70;;;5.20;64.20;;;;;;5052513;28;20424;-73
2021/05/03 02:19:00;;;;;;;6.90;4.13;;;5.20;64.40;;;;;;5068425;28;20411;-75
2021/05/03 02:21:26;;;;;;;8.53;3.00;;;5.20;64.30;;;;;;5052357;28;20162;-74
2021/05/03 02:23:51;;;;;;;8.30;3.67;;;5.20;64.00;;;;;;5068576;28;20280;-74
2021/05/03 02:26:17;;;;;;;6.47;3.53;;;5.20;64.10;;;;;;5051312;28;20228;-74
2021/05/03 02:28:43;;;;;;;7.70;3.90;;;5.20;64.20;;;;;;5052235;28;20627;-74
2021/05/03 02:31:09;;;;;;;13.57;4.50;;;5.20;64.30;;;;;;5069353;28;20181;-74
2021/05/03 02:33:34;;;;;;;5.93;3.77;;;5.10;64.20;;;;;;5060891;28;20404;-75
2021/05/03 02:36:01;;;;;;;6.00;3.53;;;5.10;64.30;;;;;;5051253;28;20198;-75
2021/05/03 02:38:29;;;;;;;8.93;3.70;;;5.00;64.60;;;;;;5054057;28;20190;-74
2021/05/03 02:40:55;;;;;;;14.77;6.27;;;5.00;64.80;;;;;;5055994;28;20439;-74
2021/05/03 02:43:21;;;;;;;14.00;4.07;;;4.90;64.90;;;;;;5071893;28;20444;-75
2021/05/03 02:45:47;;;;;;;12.80;3.57;;;4.90;65.30;;;;;;5071989;28;20208;-74
2021/05/03 02:48:13;;;;;;;12.70;3.63;;;4.90;65.40;;;;;;5059582;28;20408;-74
2021/05/03 02:50:39;;;;;;;6.27;4.17;;;4.80;65.70;;;;;;5053101;28;20510;-74
2021/05/03 02:53:04;;;;;;;5.33;3.53;;;4.70;65.90;;;;;;5053707;28;20257;-74
2021/05/03 02:55:30;;;;;;;9.07;3.33;;;4.70;66.20;;;;;;5062058;28;20190;-75
2021/05/03 02:57:57;;;;;;;5.20;3.53;;;4.70;66.70;;;;;;5075134;28;20264;-75
2021/05/03 03:00:27;;;;;;;7.87;4.33;;;4.60;67.00;;;;;;5073068;28;20180;-74
2021/05/03 03:02:53;;;;;;;10.90;3.53;;;4.60;67.10;;;;;;5064252;28;20423;-74
2021/05/03 03:05:19;;;;;;;10.53;3.80;;;4.60;67.00;;;;;;5051614;28;20428;-75
2021/05/03 03:07:45;;;;;;;8.10;3.87;;;4.60;67.30;;;;;;5052393;28;20406;-74
2021/05/03 03:10:11;;;;;;;6.03;3.30;;;4.60;67.10;;;;;;5067160;28;20172;-74
2021/05/03 03:12:37;;;;;;;6.57;3.50;;;4.60;67.40;;;;;;5051816;28;20270;-76
2021/05/03 03:15:05;;;;;;;6.17;3.63;;;4.60;67.40;;;;;;5066564;28;20478;-75
2021/05/03 03:17:31;;;;;;;6.53;3.63;;;4.60;67.00;;;;;;5051634;28;20423;-74
2021/05/03 03:19:56;;;;;;;5.27;3.47;;;4.60;67.80;;;;;;5066774;28;20424;-75
2021/05/03 03:22:22;;;;;;;7.47;5.10;;;4.70;67.10;;;;;;5051496;28;20232;-74
2021/05/03 03:24:48;;;;;;;10.03;4.40;;;4.70;66.80;;;;;;5049627;28;20216;-75
2021/05/03 03:27:14;;;;;;;6.00;4.67;;;4.60;66.60;;;;;;5034455;28;20173;-74
2021/05/03 03:29:40;;;;;;;5.80;4.23;;;4.60;66.90;;;;;;5066780;28;20930;-74
2021/05/03 03:32:06;;;;;;;7.23;4.40;;;4.50;66.90;;;;;;5050333;28;20697;-74
2021/05/03 03:34:31;;;;;;;9.97;4.83;;;4.50;67.00;;;;;;5055689;28;20174;-74
2021/05/03 03:36:57;;;;;;;5.63;3.60;;;4.40;67.30;;;;;;5050827;28;20427;-75
2021/05/03 03:39:22;;;;;;;7.83;4.37;;;4.40;67.50;;;;;;5051520;28;20176;-74
2021/05/03 03:41:48;;;;;;;5.67;3.30;;;4.40;67.80;;;;;;5049722;28;20215;-74
2021/05/03 03:44:14;;;;;;;6.57;4.70;;;4.40;67.90;;;;;;5051423;28;20280;-75
2021/05/03 03:46:40;;;;;;;11.03;3.70;;;4.40;68.20;;;;;;5066524;28;20189;-75
2021/05/03 03:49:06;;;;;;;10.00;4.37;;;4.30;68.10;;;;;;5066543;28;20238;-75
2021/05/03 03:51:31;;;;;;;6.87;4.20;;;4.40;68.50;;;;;;5050801;28;20417;-74
2021/05/03 03:53:57;;;;;;;6.80;3.87;;;4.40;68.60;;;;;;5050856;28;20265;-73
2021/05/03 03:56:23;;;;;;;8.07;4.30;;;4.40;68.70;;;;;;5049351;28;20189;-74
2021/05/03 03:58:50;;;;;;;6.23;3.60;;;4.50;68.80;;;;;;5066937;28;20416;-74
2021/05/03 04:01:16;;;;;;;11.87;5.40;;;4.50;68.60;;;;;;5051050;28;21036;-74
2021/05/03 04:03:50;;;;;;;14.60;5.97;;;4.50;68.30;;;;;;5066576;28;20466;-72
2021/05/03 04:11:31;;;;;;;12.03;5.30;;;4.50;67.50;;;;;;5066587;28;20766;-74
2021/05/03 04:21:05;;;;;;;7.00;4.87;;;4.70;66.90;;;;;;5050130;28;20427;-74
2021/05/03 04:25:08;;;;;;;8.67;4.67;;;4.80;66.20;;;;;;5051204;28;20502;-74
2021/05/03 04:27:36;;;;;;;8.10;5.97;;;4.80;65.70;;;;;;5049531;28;20416;-74
2021/05/03 04:30:04;;;;;;;7.60;4.27;;;4.80;65.30;;;;;;5049665;28;20970;-74
2021/05/03 04:32:30;;;;;;;9.33;6.27;;;4.90;65.30;;;;;;5050516;28;20893;-74
2021/05/03 04:34:55;;;;;;;6.00;4.53;;;4.90;65.10;;;;;;5050917;28;20420;-75
2021/05/03 04:37:21;;;;;;;6.90;4.70;;;5.00;64.90;;;;;;5050355;28;20185;-75
2021/05/03 04:39:47;;;;;;;15.70;5.63;;;5.10;64.70;;;;;;5041423;28;20173;-75
2021/05/03 04:42:12;;;;;;;8.23;4.57;;;5.10;64.40;;;;;;5051105;28;20649;-75
2021/05/03 04:44:38;;;;;;;15.13;5.30;;;5.10;65.10;;;;;;5052376;28;20300;-75
2021/05/03 04:47:04;;;;;;;8.03;4.73;;;5.10;65.60;;;;;;5054135;28;20168;-74
2021/05/03 04:49:29;;;;;;;7.60;4.33;;;5.00;66.70;;;;;;5054027;28;20166;-73
2021/05/03 04:51:55;;;;;;;12.53;5.47;;;5.00;67.00;;;;;;5054387;28;20165;-74
2021/05/03 04:54:22;;;;;;;12.17;6.23;;;5.00;67.30;;;;;;5054333;28;20252;-73
2021/05/03 04:56:47;;;;;;;11.33;5.80;;;5.10;67.60;;;;;;5054163;28;20619;-73
2021/05/03 04:59:13;;;;;;;15.73;7.10;;;5.20;67.60;;;;;;5054072;28;20481;-75
2021/05/03 05:01:39;;;;;;;6.83;5.00;;;5.30;67.60;;;;;;5054290;28;20162;-76
2021/05/03 05:04:05;;;;;;;8.47;6.10;;;5.40;67.40;;;;;;5052600;28;20206;-75
2021/05/03 05:06:30;;;;;;;10.77;5.80;;;5.50;67.40;;;;;;5053842;28;20193;-74
2021/05/03 05:08:57;;;;;;;7.00;5.37;;;5.70;67.00;;;;;;5052573;28;20403;-75
2021/05/03 05:11:26;;;;;;;9.40;6.50;;;5.90;66.40;;;;;;5054442;28;20465;-73
2021/05/03 05:14:06;;;;;;;8.80;5.27;;;6.10;65.60;;;;;;5054571;28;20223;-77
2021/05/03 05:16:32;;;;;;;8.63;5.40;;;6.30;64.90;;;;;;5064518;28;20532;-77
2021/05/03 05:18:58;;;;;;;7.33;5.43;;;6.50;64.40;;;;;;5067628;28;20432;-78
2021/05/03 05:21:26;;;;;;;8.30;5.73;;;6.60;62.20;;;;;;5039648;28;20179;-76
2021/05/03 05:23:54;;;;;;;8.17;5.87;;;6.80;61.40;;;;;;5073159;28;20955;-75
2021/05/03 05:26:19;;;;;;;10.87;5.80;;;6.90;59.60;;;;;;5055898;28;20979;-76
2021/05/03 05:28:45;;;;;;;9.07;5.67;;;6.90;58.80;;;;;;5053454;28;20442;-75
2021/05/03 05:31:11;;;;;;;9.97;5.40;;;7.00;58.40;;;;;;5038772;28;20185;-74
2021/05/03 05:33:37;;;;;;;9.50;6.07;;;7.00;58.10;;;;;;5056271;28;20181;-75
2021/05/03 05:36:04;;;;;;;7.67;5.20;;;7.10;57.50;;;;;;5053660;28;20266;-74
2021/05/03 05:38:29;;;;;;;8.43;4.80;;;7.10;56.70;;;;;;5069400;28;20503;-76
2021/05/03 05:40:55;;;;;;;7.40;5.23;;;7.20;56.60;;;;;;5049843;28;20468;-75
2021/05/03 05:43:21;;;;;;;7.53;4.83;;;7.30;56.40;;;;;;5054760;28;20190;-76
2021/05/03 05:45:47;;;;;;;6.00;4.97;;;7.30;55.20;;;;;;5060116;28;20531;-76
2021/05/03 05:48:13;;;;;;;10.87;5.23;;;7.40;55.60;;;;;;5053712;28;20540;-75
2021/05/03 05:50:39;;;;;;;8.17;4.60;;;7.50;55.60;;;;;;5054344;28;20414;-76
2021/05/03 05:53:05;;;;;;;9.40;5.90;;;7.60;54.50;;;;;;5053033;28;20173;-76
2021/05/03 05:55:31;;;;;;;8.53;5.03;;;7.70;54.50;;;;;;5053400;28;21019;-75
2021/05/03 05:57:56;;;;;;;15.00;6.10;;;7.80;54.50;;;;;;5052565;28;20170;-76
2021/05/03 06:00:22;;;;;;;11.07;5.67;;;7.90;54.90;;;;;;5054203;28;20181;-75
2021/05/03 06:02:49;;;;;;;9.10;5.77;;;8.30;54.50;;;;;;5054757;28;20188;-77
2021/05/03 06:05:15;;;;;;;8.27;5.27;;;8.60;53.90;;;;;;5055156;28;20193;-76
2021/05/03 06:07:41;;;;;;;14.00;7.23;;;9.00;53.20;;;;;;5044149;28;20424;-75
2021/05/03 06:10:07;;;;;;;9.37;5.73;;;9.10;52.80;;;;;;5060414;28;20435;-75
2021/05/03 06:12:33;;;;;;;7.27;4.97;;;9.30;52.80;;;;;;5052291;28;20481;-76
2021/05/03 06:14:59;;;;;;;8.97;5.73;;;9.30;52.20;;;;;;5075638;28;20464;-77
2021/05/03 06:17:31;;;;;;;10.93;7.00;;;9.10;51.90;;;;;;5049872;28;20448;-76
2021/05/03 06:19:57;;;;;;;8.43;5.93;;;8.90;52.40;;;;;;5051721;28;20452;-75
2021/05/03 06:22:22;;;;;;;10.70;5.80;;;8.70;52.80;;;;;;5052990;28;20424;-76
2021/05/03 06:24:48;;;;;;;10.03;5.60;;;8.60;53.60;;;;;;5051165;28;20292;-75
2021/05/03 06:27:14;;;;;;;7.60;5.87;;;8.60;53.80;;;;;;5051053;28;20170;-75
2021/05/03 06:29:40;;;;;;;12.50;6.23;;;8.60;53.50;;;;;;5052167;28;20419;-75
2021/05/03 06:32:06;;;;;;;9.03;5.27;;;8.70;53.90;;;;;;5050750;28;20216;-76
2021/05/03 06:34:31;;;;;;;11.37;5.97;;;8.80;54.20;;;;;;5053321;28;20161;-76
2021/05/03 06:36:59;;;;;;;11.50;6.77;;;9.00;53.80;;;;;;5050364;28;20782;-75
2021/05/03 06:39:25;;;;;;;9.90;5.37;;;9.10;53.40;;;;;;5052730;28;20424;-75
2021/05/03 06:41:51;;;;;;;8.10;5.70;;;9.20;53.50;;;;;;5051066;28;20428;-76
2021/05/03 06:44:17;;;;;;;9.30;6.17;;;9.70;53.70;;;;;;5054494;28;20543;-76
2021/05/03 06:46:43;;;;;;;13.50;6.70;;;10.60;51.60;;;;;;5052441;28;20908;-76
2021/05/03 06:49:10;;;;;;;8.50;6.37;;;11.90;47.80;;;;;;5052460;28;20423;-76
2021/05/03 06:51:36;;;;;;;9.20;5.83;;;12.80;46.60;;;;;;5053227;28;20431;-76
2021/05/03 06:54:03;;;;;;;8.80;6.50;;;13.00;44.30;;;;;;5052853;28;20411;-75
2021/05/03 06:56:29;;;;;;;15.70;6.33;;;12.70;44.40;;;;;;5070281;28;20439;-76
2021/05/03 06:58:54;;;;;;;8.70;6.10;;;12.40;45.20;;;;;;5062428;28;20416;-75
2021/05/03 07:01:21;;;;;;;7.63;5.70;;;12.30;45.80;;;;;;5068051;28;20229;-76
2021/05/03 07:03:52;;;;;;;6.73;5.33;;;12.60;46.00;;;;;;5067625;28;20210;-76
2021/05/03 07:06:18;;;;;;;8.70;6.00;;;12.60;46.00;;;;;;5065995;28;20494;-75
2021/05/03 07:08:43;;;;;;;8.40;5.63;;;12.80;45.20;;;;;;5053848;28;20490;-76
2021/05/03 07:11:15;;;;;;;10.10;5.77;;;13.70;44.40;;;;;;5056979;28;20540;-75
2021/05/03 07:13:42;;;;;;;10.47;6.70;;;14.50;41.80;;;;;;5072383;28;20941;-74
2021/05/03 07:16:07;;;;;;;7.70;5.57;;;15.80;41.00;;;;;;5061412;28;20440;-75
2021/05/03 07:18:33;;;;;;;7.93;5.87;;;16.80;39.00;;;;;;5065153;28;20455;-76
2021/05/03 07:20:59;;;;;;;11.97;5.50;;;17.80;37.30;;;;;;5057357;28;20170;-75
2021/05/03 07:23:28;;;;;;;7.73;6.60;;;18.50;36.10;;;;;;5068744;28;20196;-77
2021/05/03 07:25:53;;;;;;;9.90;5.70;;;18.90;34.50;;;;;;5060396;28;20434;-75
2021/05/03 07:28:19;;;;;;;6.87;5.33;;;18.80;33.30;;;;;;5067509;28;20423;-75
2021/05/03 07:30:47;;;;;;;6.60;5.27;;;18.80;33.40;;;;;;5053487;28;20531;-75
2021/05/03 07:33:13;;;;;;;10.07;5.87;;;19.00;33.10;;;;;;5052209;28;20420;-74
2021/05/03 07:35:39;;;;;;;12.57;6.10;;;19.50;32.00;;;;;;5050392;28;20710;-74
2021/05/03 07:38:05;;;;;;;7.87;6.07;;;20.10;31.00;;;;;;5058462;28;20255;-76
2021/05/03 07:40:30;;;;;;;8.27;5.63;;;20.40;30.00;;;;;;5072434;28;20210;-74
2021/05/03 07:42:57;;;;;;;9.17;6.70;;;20.60;29.80;;;;;;5049023;28;20200;-77
2021/05/03 07:45:23;;;;;;;5.90;5.30;;;21.10;29.50;;;;;;5049880;28;20659;-76
2021/05/03 07:47:51;;;;;;;7.83;5.03;;;21.80;28.70;;;;;;5051511;28;20412;-77
2021/05/03 07:50:17;;;;;;;6.87;5.53;;;22.30;27.90;;;;;;5050629;28;20172;-77
2021/05/03 07:52:43;;;;;;;7.13;4.50;;;22.20;27.80;;;;;;5051041;28;20424;-76
2021/05/03 07:55:12;;;;;;;5.90;5.03;;;22.50;27.40;;;;;;5057285;28;20334;-76
2021/05/03 07:57:38;;;;;;;6.77;5.97;;;22.60;27.00;;;;;;5052356;28;20253;-75
2021/05/03 08:00:06;;;;;;;8.13;5.00;;;22.40;27.40;;;;;;5051596;28;20498;-75
2021/05/03 08:02:32;;;;;;;7.73;4.50;;;22.60;26.50;;;;;;5051788;28;20185;-76
2021/05/03 08:04:57;;;;;;;10.47;5.17;;;22.40;25.60;;;;;;5071831;28;20505;-75
2021/05/03 08:07:26;;;;;;;6.13;4.10;;;22.60;25.00;;;;;;5071250;28;20904;-74
2021/05/03 08:09:55;;;;;;;6.43;4.43;;;23.00;25.30;;;;;;5059601;28;20655;-76
2021/05/03 08:12:21;;;;;;;8.70;5.93;;;23.40;23.90;;;;;;5050681;28;20428;-75
2021/05/03 08:14:49;;;;;;;10.30;5.40;;;23.50;24.50;;;;;;5068976;28;20468;-76
2021/05/03 08:17:16;;;;;;;6.50;4.60;;;23.50;24.50;;;;;;5049061;28;20535;-76
2021/05/03 08:19:51;;;;;;;7.13;5.33;;;23.70;24.40;;;;;;5053754;28;20479;-77
2021/05/03 08:22:18;;;;;;;6.30;5.07;;;24.20;24.70;;;;;;5055762;28;20481;-77
2021/05/03 08:24:44;;;;;;;5.63;4.07;;;24.10;24.60;;;;;;5039442;28;20463;-78
2021/05/03 08:27:12;;;;;;;6.50;3.50;;;24.30;23.30;;;;;;5056853;28;20642;-76
2021/05/03 08:29:40;;;;;;;4.40;3.90;;;24.20;21.80;;;;;;5056291;28;20166;-76
2021/05/03 08:32:09;;;;;;;6.33;3.57;;;24.10;21.70;;;;;;5058001;28;20944;-77
2021/05/03 08:34:44;;;;;;;4.43;2.93;;;24.20;21.80;;;;;;5057623;28;20412;-76
2021/05/03 08:37:12;;;;;;;5.70;3.10;;;24.70;21.20;;;;;;5055695;28;20515;-76
2021/05/03 08:39:38;;;;;;;3.20;2.67;;;24.60;21.00;;;;;;5058848;28;20979;-77
2021/05/03 08:42:07;;;;;;;4.20;2.87;;;24.50;20.90;;;;;;5050228;28;20528;-76
2021/05/03 08:44:35;;;;;;;8.63;3.43;;;24.60;21.20;;;;;;5041253;28;20983;-76
2021/05/03 08:47:04;;;;;;;6.27;3.33;;;24.50;21.50;;;;;;5071781;28;20572;-76
2021/05/03 08:52:11;;;;;;;6.20;3.20;;;25.20;21.00;;;;;;5056789;28;20487;-76
2021/05/03 08:57:06;;;;;;;8.03;4.07;;;24.50;21.40;;;;;;5068814;28;20422;-75
2021/05/03 08:59:35;;;;;;;4.97;3.50;;;24.20;21.40;;;;;;5076702;28;20312;-76
2021/05/03 09:02:05;;;;;;;7.57;3.37;;;23.90;22.30;;;;;;5055903;28;20420;-75
2021/05/03 09:04:34;;;;;;;4.80;3.40;;;24.00;22.30;;;;;;5056207;28;20967;-76
2021/05/03 09:07:09;;;;;;;8.70;4.30;;;24.40;22.00;;;;;;5056804;28;20499;-75
2021/05/03 09:09:48;;;;;;;6.77;3.63;;;24.40;21.90;;;;;;5055754;28;20423;-76
2021/05/03 09:12:25;;;;;;;33.10;25.27;;;24.40;21.80;;;;;;5055996;28;20419;-76
2021/05/03 09:14:53;;;;;;;7.07;4.30;;;24.40;21.90;;;;;;5050749;28;20821;-75
2021/05/03 09:17:28;;;;;;;6.43;3.60;;;24.50;21.40;;;;;;5054535;28;20944;-75
2021/05/03 09:20:01;;;;;;;8.73;5.13;;;23.80;21.50;;;;;;5055230;28;20936;-76
2021/05/03 09:22:46;;;;;;;5.77;4.33;;;24.10;21.80;;;;;;5066256;28;20565;-75
2021/05/03 09:25:35;;;;;;;5.40;3.27;;;24.20;21.00;;;;;;5051642;28;20605;-77
2021/05/03 09:28:04;;;;;;;8.10;5.30;;;24.60;20.90;;;;;;5056542;28;20446;-77
2021/05/03 09:30:35;;;;;;;7.37;4.77;;;25.20;20.70;;;;;;5058864;28;20431;-76
2021/05/03 09:33:31;;;;;;;8.80;4.47;;;25.30;20.80;;;;;;5064833;28;20610;-77
2021/05/03 09:36:10;;;;;;;7.20;4.73;;;25.50;20.60;;;;;;5057732;28;20475;-78
2021/05/03 09:38:46;;;;;;;9.50;4.10;;;25.30;20.40;;;;;;5069064;28;20421;-78
2021/05/03 09:41:25;;;;;;;4.90;4.00;;;25.00;20.90;;;;;;5068479;28;20404;-77
2021/05/03 09:44:03;;;;;;;8.23;4.20;;;25.00;21.60;;;;;;5058865;28;20440;-77
2021/05/03 09:46:40;;;;;;;6.20;3.87;;;25.40;21.00;;;;;;5056209;28;20535;-76
2021/05/03 09:49:13;;;;;;;11.30;5.10;;;25.30;20.90;;;;;;5042922;28;20400;-77
2021/05/03 09:51:57;;;;;;;10.13;4.90;;;23.80;21.50;;;;;;5053958;28;20424;-76
2021/05/03 09:54:27;;;;;;;6.50;4.73;;;22.20;22.80;;;;;;5053898;28;20420;-76
2021/05/03 09:56:55;;;;;;;45.87;31.47;;;21.10;23.80;;;;;;5060383;28;20478;-76
2021/05/03 09:59:31;;;;;;;8.17;5.37;;;20.80;24.20;;;;;;5074383;28;21301;-76
2021/05/03 10:02:12;;;;;;;10.33;5.97;;;20.30;24.80;;;;;;5070019;28;20634;-77
2021/05/03 10:04:47;;;;;;;10.60;4.80;;;20.30;24.70;;;;;;5053116;28;20459;-75
2021/05/03 10:07:13;;;;;;;5.83;4.27;;;20.20;24.80;;;;;;5053892;28;20487;-77
2021/05/03 10:09:39;;;;;;;6.73;4.53;;;19.90;24.50;;;;;;5079711;28;20410;-77
2021/05/03 10:12:07;;;;;;;4.97;4.30;;;19.40;26.70;;;;;;5067435;28;20873;-77
2021/05/03 10:14:33;;;;;;;10.97;4.90;;;18.80;26.10;;;;;;5054937;28;20174;-76
2021/05/03 10:16:59;;;;;;;7.93;4.90;;;18.40;26.20;;;;;;5052733;28;20417;-76
2021/05/03 10:19:29;;;;;;;8.43;4.50;;;18.30;26.40;;;;;;5053144;28;20429;-75
2021/05/03 10:21:54;;;;;;;6.07;4.20;;;18.00;26.50;;;;;;5033894;28;20178;-76
2021/05/03 10:24:20;;;;;;;5.40;4.50;;;18.30;26.00;;;;;;5053634;28;20459;-76
2021/05/03 10:26:50;;;;;;;5.00;4.00;;;19.10;25.80;;;;;;5059835;28;20682;-77
2021/05/03 10:29:30;;;;;;;8.23;4.77;;;19.90;24.80;;;;;;5073112;28;20410;-76
2021/05/03 10:32:04;;;;;;;7.57;4.40;;;20.70;24.00;;;;;;5059305;28;20528;-75
2021/05/03 10:34:43;;;;;;;7.43;5.53;;;21.10;23.40;;;;;;5035074;28;20472;-76
2021/05/03 10:37:31;;;;;;;6.63;4.70;;;21.30;23.20;;;;;;5052658;28;20463;-75
2021/05/03 10:40:00;;;;;;;4.43;3.93;;;21.10;23.60;;;;;;5052100;28;20470;-77
2021/05/03 10:42:26;;;;;;;4.53;3.70;;;20.80;23.10;;;;;;5054156;28;20414;-76
2021/05/03 10:45:08;;;;;;;6.10;4.20;;;20.30;23.20;;;;;;5064334;28;20480;-76
2021/05/03 10:47:42;;;;;;;8.03;5.23;;;19.90;23.50;;;;;;5058056;28;20417;-77
2021/05/03 10:50:35;;;;;;;5.10;3.90;;;19.80;23.60;;;;;;5056739;28;20425;-78
2021/05/03 10:53:29;;;;;;;5.60;4.00;;;19.60;23.30;;;;;;5054211;28;20525;-78
2021/05/03 10:56:06;;;;;;;7.67;3.70;;;19.60;23.50;;;;;;5046986;28;20448;-77
2021/05/03 10:58:54;;;;;;;5.60;4.27;;;19.60;23.70;;;;;;5070640;28;20552;-77
2021/05/03 11:01:20;;;;;;;5.20;4.70;;;19.50;23.20;;;;;;5053188;28;20413;-76
2021/05/03 11:03:55;;;;;;;4.53;3.13;;;19.30;23.30;;;;;;5053171;28;20456;-76
2021/05/03 11:06:39;;;;;;;5.27;3.80;;;19.00;24.10;;;;;;5033061;28;20826;-76
2021/05/03 11:09:32;;;;;;;4.57;3.70;;;18.80;24.20;;;;;;5043104;28;20408;-76
2021/05/03 11:11:59;;;;;;;6.53;3.87;;;18.60;24.40;;;;;;5019040;28;20440;-76
2021/05/03 11:14:29;;;;;;;6.23;3.97;;;18.50;24.40;;;;;;5060147;28;20432;-76
2021/05/03 11:17:06;;;;;;;5.80;3.67;;;18.50;24.20;;;;;;5051930;28;20886;-76
2021/05/03 11:22:52;;;;;;;4.80;3.70;;;18.10;24.10;;;;;;5051846;28;20840;-77
2021/05/03 11:25:29;;;;;;;5.07;3.43;;;18.00;24.10;;;;;;5051963;28;20444;-77
2021/05/03 11:28:09;;;;;;;4.13;3.10;;;17.90;24.30;;;;;;5052565;28;20415;-76
2021/05/03 11:30:40;;;;;;;5.60;3.83;;;18.10;24.10;;;;;;5033006;28;20429;-77
2021/05/03 11:33:13;;;;;;;6.57;4.23;;;18.00;24.20;;;;;;5051975;28;20439;-77
2021/05/03 11:35:51;;;;;;;4.57;3.87;;;17.90;24.00;;;;;;5068527;28;20521;-76
2021/05/03 11:38:38;;;;;;;8.47;3.53;;;17.70;23.90;;;;;;5079106;28;20412;-77
2021/05/03 11:44:09;;;;;;;6.90;4.00;;;17.40;24.10;;;;;;5055443;28;20486;-76
2021/05/03 11:46:32;;;;;;;4.63;3.83;;;17.00;24.30;;;;;;5053135;28;20428;-75
2021/05/03 11:49:19;;;;;;;4.60;3.90;;;16.80;25.00;;;;;;5068263;28;20587;-76
2021/05/03 11:51:55;;;;;;;4.97;3.87;;;16.50;25.90;;;;;;5074795;28;20484;-76
2021/05/03 11:54:33;;;;;;;5.20;3.73;;;16.50;26.30;;;;;;5081955;28;20472;-76
2021/05/03 11:57:04;;;;;;;10.43;4.83;;;16.40;27.00;;;;;;5065667;28;20424;-75
2021/05/03 11:59:31;;;;;;;12.53;5.80;;;16.20;27.90;;;;;;5053037;28;20896;-76
2021/05/03 12:02:03;;;;;;;8.17;4.90;;;15.90;29.10;;;;;;5050535;28;20416;-76
2021/05/03 12:04:37;;;;;;;5.80;5.03;;;15.70;30.00;;;;;;5044399;28;20510;-77
2021/05/03 12:07:25;;;;;;;13.77;5.90;;;15.80;30.00;;;;;;5050627;28;20451;-76
2021/05/03 12:10:05;;;;;;;5.40;4.87;;;16.30;29.60;;;;;;5050455;28;20801;-76
2021/05/03 12:12:52;;;;;;;8.23;4.63;;;16.90;28.90;;;;;;5050960;28;20539;-77
2021/05/03 12:15:27;;;;;;;6.73;4.60;;;17.40;27.60;;;;;;5050462;28;20517;-77
2021/05/03 12:18:00;;;;;;;5.83;4.83;;;17.70;27.40;;;;;;5034232;28;20946;-76
2021/05/03 12:20:28;;;;;;;6.57;3.83;;;17.80;26.80;;;;;;5050029;28;20543;-76
2021/05/03 12:23:01;;;;;;;4.97;3.93;;;17.90;26.40;;;;;;5051285;28;20465;-77
2021/05/03 12:25:37;;;;;;;9.80;4.83;;;17.90;26.20;;;;;;5048773;28;20455;-76
2021/05/03 12:28:08;;;;;;;6.37;4.33;;;17.70;25.90;;;;;;5051579;28;20911;-76
2021/05/03 12:30:37;;;;;;;5.73;3.70;;;17.70;25.90;;;;;;5051590;28;20411;-76
2021/05/03 12:33:08;;;;;;;6.20;3.53;;;17.60;26.10;;;;;;5049109;28;20428;-77
2021/05/03 12:35:36;;;;;;;5.20;3.93;;;17.50;25.30;;;;;;5049571;28;20814;-77
2021/05/03 12:38:18;;;;;;;8.30;4.17;;;17.40;25.60;;;;;;5050611;28;20433;-77
2021/05/03 12:40:44;;;;;;;6.20;4.57;;;17.30;26.00;;;;;;5051853;28;20538;-76
2021/05/03 12:43:14;;;;;;;3.83;3.00;;;17.40;26.20;;;;;;5049778;28;20454;-76
2021/05/03 12:46:06;;;;;;;5.70;4.20;;;17.00;26.10;;;;;;5051534;28;20663;-77
2021/05/03 12:48:44;;;;;;;5.03;3.20;;;16.50;26.70;;;;;;5051787;28;20408;-77
2021/05/03 12:59:55;;;;;;;6.30;3.70;;;16.20;27.60;;;;;;5050745;28;20961;-76
2021/05/03 13:02:33;;;;;;;4.80;3.40;;;16.60;27.30;;;;;;5052238;28;20428;-76
2021/05/03 13:05:25;;;;;;;9.23;4.57;;;17.00;27.00;;;;;;5052220;28;20548;-79
2021/05/03 13:24:59;;;;;;;9.00;4.87;;;18.20;25.30;;;;;;5049568;28;20455;-78
2021/05/03 13:30:23;;;;;;;7.60;3.37;;;18.10;25.80;;;;;;5055755;28;20412;-79
2021/05/03 13:32:49;;;;;;;8.03;4.37;;;17.90;26.00;;;;;;5065243;28;20454;-77
2021/05/03 13:35:17;;;;;;;5.63;3.40;;;17.70;26.20;;;;;;5065007;28;20432;-77
2021/05/03 13:37:46;;;;;;;5.70;3.47;;;17.60;26.60;;;;;;5055281;28;22054;-78
2021/05/03 13:40:13;;;;;;;11.33;4.03;;;17.50;26.70;;;;;;5057029;28;20921;-77
2021/05/03 13:42:43;;;;;;;8.20;3.90;;;17.30;26.50;;;;;;5054407;28;20420;-77
2021/05/03 13:45:10;;;;;;;4.40;3.27;;;17.10;26.70;;;;;;5054437;28;20577;-77
2021/05/03 13:47:36;;;;;;;4.63;3.40;;;17.00;26.90;;;;;;5054032;28;20780;-78
2021/05/03 13:50:04;;;;;;;4.73;3.20;;;17.00;27.20;;;;;;5058897;28;20404;-78
2021/05/03 13:52:30;;;;;;;6.60;3.30;;;17.00;27.20;;;;;;5059442;28;20412;-77
2021/05/03 13:54:56;;;;;;;4.40;3.40;;;16.90;27.70;;;;;;5064462;28;20565;-78